sensor_id;sensor_type;location;lat;lon;timestamp;pressure;altitude;pressure_sealevel;temperature;humidity
63447;BME280;49577;49.872;6.190;2023-04-06T00:00:52;99705.46;;;0.03;71.00
63447;BME280;49577;49.872;6.190;2023-04-06T00:03:18;99707.84;;;-0.06;70.89
63447;BME280;49577;49.872;6.190;2023-04-06T00:05:44;99706.33;;;-0.18;71.14
63447;BME280;49577;49.872;6.190;2023-04-06T00:08:09;99709.13;;;-0.31;71.30
63447;BME280;49577;49.872;6.190;2023-04-06T00:10:35;99704.16;;;-0.40;71.60
63447;BME280;49577;49.872;6.190;2023-04-06T00:13:01;99703.41;;;-0.48;72.01
63447;BME280;49577;49.872;6.190;2023-04-06T00:15:26;99702.40;;;-0.48;72.44
63447;BME280;49577;49.872;6.190;2023-04-06T00:17:52;99702.69;;;-0.46;72.58
63447;BME280;49577;49.872;6.190;2023-04-06T00:20:18;99700.63;;;-0.46;72.43
63447;BME280;49577;49.872;6.190;2023-04-06T00:22:44;99698.85;;;-0.52;72.59
63447;BME280;49577;49.872;6.190;2023-04-06T00:25:10;99696.63;;;-0.53;73.10
63447;BME280;49577;49.872;6.190;2023-04-06T00:27:36;99695.73;;;-0.51;73.27
63447;BME280;49577;49.872;6.190;2023-04-06T00:30:05;99695.55;;;-0.49;73.28
63447;BME280;49577;49.872;6.190;2023-04-06T00:32:31;99693.10;;;-0.47;73.28
63447;BME280;49577;49.872;6.190;2023-04-06T00:34:56;99691.34;;;-0.44;73.16
63447;BME280;49577;49.872;6.190;2023-04-06T00:37:22;99687.78;;;-0.47;72.62
63447;BME280;49577;49.872;6.190;2023-04-06T00:39:47;99689.27;;;-0.54;72.62
63447;BME280;49577;49.872;6.190;2023-04-06T00:42:13;99689.34;;;-0.59;72.86
63447;BME280;49577;49.872;6.190;2023-04-06T00:44:40;99684.56;;;-0.60;72.86
63447;BME280;49577;49.872;6.190;2023-04-06T00:47:05;99680.15;;;-0.63;72.91
63447;BME280;49577;49.872;6.190;2023-04-06T00:49:32;99681.92;;;-0.66;73.42
63447;BME280;49577;49.872;6.190;2023-04-06T00:51:57;99684.80;;;-0.65;73.55
63447;BME280;49577;49.872;6.190;2023-04-06T00:54:23;99685.32;;;-0.65;73.39
63447;BME280;49577;49.872;6.190;2023-04-06T00:56:48;99683.25;;;-0.65;73.24
63447;BME280;49577;49.872;6.190;2023-04-06T00:59:13;99679.63;;;-0.63;73.36
63447;BME280;49577;49.872;6.190;2023-04-06T01:01:39;99680.27;;;-0.60;73.28
63447;BME280;49577;49.872;6.190;2023-04-06T01:04:04;99677.66;;;-0.59;73.27
63447;BME280;49577;49.872;6.190;2023-04-06T01:06:30;99675.42;;;-0.57;73.13
63447;BME280;49577;49.872;6.190;2023-04-06T01:08:55;99676.45;;;-0.57;73.19
63447;BME280;49577;49.872;6.190;2023-04-06T01:11:20;99676.13;;;-0.59;72.88
63447;BME280;49577;49.872;6.190;2023-04-06T01:13:46;99678.23;;;-0.61;73.13
63447;BME280;49577;49.872;6.190;2023-04-06T01:16:11;99679.60;;;-0.61;73.20
63447;BME280;49577;49.872;6.190;2023-04-06T01:18:38;99677.73;;;-0.62;73.04
63447;BME280;49577;49.872;6.190;2023-04-06T01:21:03;99675.90;;;-0.65;72.97
63447;BME280;49577;49.872;6.190;2023-04-06T01:23:29;99668.61;;;-0.70;72.79
63447;BME280;49577;49.872;6.190;2023-04-06T01:25:54;99668.14;;;-0.74;72.95
63447;BME280;49577;49.872;6.190;2023-04-06T01:28:20;99664.09;;;-0.78;72.89
63447;BME280;49577;49.872;6.190;2023-04-06T01:30:45;99659.89;;;-0.84;72.93
63447;BME280;49577;49.872;6.190;2023-04-06T01:33:11;99654.96;;;-0.88;73.18
63447;BME280;49577;49.872;6.190;2023-04-06T01:35:37;99655.34;;;-0.89;73.19
63447;BME280;49577;49.872;6.190;2023-04-06T01:38:02;99654.14;;;-0.90;73.31
63447;BME280;49577;49.872;6.190;2023-04-06T01:40:27;99650.20;;;-0.89;73.42
63447;BME280;49577;49.872;6.190;2023-04-06T01:42:52;99652.40;;;-0.88;73.46
63447;BME280;49577;49.872;6.190;2023-04-06T01:45:18;99651.69;;;-0.86;73.48
63447;BME280;49577;49.872;6.190;2023-04-06T01:47:43;99649.80;;;-0.86;73.48
63447;BME280;49577;49.872;6.190;2023-04-06T01:50:09;99647.27;;;-0.88;73.39
63447;BME280;49577;49.872;6.190;2023-04-06T01:52:34;99646.27;;;-0.90;73.31
63447;BME280;49577;49.872;6.190;2023-04-06T01:54:59;99649.58;;;-0.93;73.31
63447;BME280;49577;49.872;6.190;2023-04-06T01:57:25;99646.87;;;-0.96;73.57
63447;BME280;49577;49.872;6.190;2023-04-06T01:59:50;99650.67;;;-0.98;73.55
63447;BME280;49577;49.872;6.190;2023-04-06T02:02:16;99647.77;;;-0.99;73.73
63447;BME280;49577;49.872;6.190;2023-04-06T02:04:41;99650.18;;;-1.00;73.95
63447;BME280;49577;49.872;6.190;2023-04-06T02:07:06;99647.95;;;-1.00;74.06
63447;BME280;49577;49.872;6.190;2023-04-06T02:09:32;99646.23;;;-0.99;73.93
63447;BME280;49577;49.872;6.190;2023-04-06T02:11:57;99651.36;;;-0.97;73.88
63447;BME280;49577;49.872;6.190;2023-04-06T02:14:25;99652.19;;;-0.96;73.94
63447;BME280;49577;49.872;6.190;2023-04-06T02:16:50;99650.66;;;-0.97;73.88
63447;BME280;49577;49.872;6.190;2023-04-06T02:19:16;99650.92;;;-1.03;73.71
63447;BME280;49577;49.872;6.190;2023-04-06T02:21:41;99651.19;;;-1.09;73.76
63447;BME280;49577;49.872;6.190;2023-04-06T02:24:07;99647.50;;;-1.15;74.08
63447;BME280;49577;49.872;6.190;2023-04-06T02:26:32;99645.79;;;-1.16;74.36
63447;BME280;49577;49.872;6.190;2023-04-06T02:28:57;99644.11;;;-1.18;74.19
63447;BME280;49577;49.872;6.190;2023-04-06T02:31:23;99643.28;;;-1.20;74.04
63447;BME280;49577;49.872;6.190;2023-04-06T02:33:48;99642.27;;;-1.21;74.58
63447;BME280;49577;49.872;6.190;2023-04-06T02:36:13;99643.83;;;-1.22;74.62
63447;BME280;49577;49.872;6.190;2023-04-06T02:38:38;99640.93;;;-1.23;74.76
63447;BME280;49577;49.872;6.190;2023-04-06T02:41:04;99636.86;;;-1.25;74.82
63447;BME280;49577;49.872;6.190;2023-04-06T02:43:29;99633.14;;;-1.30;74.55
63447;BME280;49577;49.872;6.190;2023-04-06T02:45:55;99634.57;;;-1.34;74.81
63447;BME280;49577;49.872;6.190;2023-04-06T02:48:20;99632.57;;;-1.37;74.94
63447;BME280;49577;49.872;6.190;2023-04-06T02:50:45;99632.92;;;-1.39;74.93
63447;BME280;49577;49.872;6.190;2023-04-06T02:53:11;99632.96;;;-1.41;74.88
63447;BME280;49577;49.872;6.190;2023-04-06T02:55:36;99628.90;;;-1.46;74.72
63447;BME280;49577;49.872;6.190;2023-04-06T02:58:01;99630.02;;;-1.52;74.59
63447;BME280;49577;49.872;6.190;2023-04-06T03:00:27;99631.56;;;-1.53;75.48
63447;BME280;49577;49.872;6.190;2023-04-06T03:02:52;99628.79;;;-1.50;75.43
63447;BME280;49577;49.872;6.190;2023-04-06T03:05:17;99627.40;;;-1.49;75.39
63447;BME280;49577;49.872;6.190;2023-04-06T03:07:43;99624.81;;;-1.47;75.20
63447;BME280;49577;49.872;6.190;2023-04-06T03:10:08;99626.33;;;-1.45;75.41
63447;BME280;49577;49.872;6.190;2023-04-06T03:12:34;99624.77;;;-1.44;75.40
63447;BME280;49577;49.872;6.190;2023-04-06T03:15:00;99626.98;;;-1.43;75.19
63447;BME280;49577;49.872;6.190;2023-04-06T03:17:25;99626.66;;;-1.44;75.04
63447;BME280;49577;49.872;6.190;2023-04-06T03:19:50;99625.15;;;-1.46;75.12
63447;BME280;49577;49.872;6.190;2023-04-06T03:22:16;99624.99;;;-1.47;75.10
63447;BME280;49577;49.872;6.190;2023-04-06T03:24:41;99625.70;;;-1.49;75.35
63447;BME280;49577;49.872;6.190;2023-04-06T03:27:06;99624.52;;;-1.50;75.35
63447;BME280;49577;49.872;6.190;2023-04-06T03:29:32;99626.76;;;-1.51;75.28
63447;BME280;49577;49.872;6.190;2023-04-06T03:31:57;99631.23;;;-1.54;75.49
63447;BME280;49577;49.872;6.190;2023-04-06T03:34:22;99633.14;;;-1.55;75.57
63447;BME280;49577;49.872;6.190;2023-04-06T03:36:48;99631.30;;;-1.59;75.49
63447;BME280;49577;49.872;6.190;2023-04-06T03:39:13;99628.98;;;-1.63;75.67
63447;BME280;49577;49.872;6.190;2023-04-06T03:41:38;99629.36;;;-1.67;75.90
63447;BME280;49577;49.872;6.190;2023-04-06T03:44:05;99633.84;;;-1.70;76.01
63447;BME280;49577;49.872;6.190;2023-04-06T03:46:30;99631.61;;;-1.70;76.29
63447;BME280;49577;49.872;6.190;2023-04-06T03:48:55;99633.52;;;-1.71;76.25
63447;BME280;49577;49.872;6.190;2023-04-06T03:51:21;99630.98;;;-1.72;76.13
63447;BME280;49577;49.872;6.190;2023-04-06T03:53:46;99632.02;;;-1.75;76.19
63447;BME280;49577;49.872;6.190;2023-04-06T03:56:12;99632.92;;;-1.77;76.22
63447;BME280;49577;49.872;6.190;2023-04-06T03:58:37;99631.90;;;-1.79;76.38
63447;BME280;49577;49.872;6.190;2023-04-06T04:01:02;99635.67;;;-1.80;76.33
63447;BME280;49577;49.872;6.190;2023-04-06T04:03:27;99634.98;;;-1.77;76.58
63447;BME280;49577;49.872;6.190;2023-04-06T04:05:53;99639.38;;;-1.74;76.66
63447;BME280;49577;49.872;6.190;2023-04-06T04:08:20;99644.29;;;-1.69;76.80
63447;BME280;49577;49.872;6.190;2023-04-06T04:10:46;99638.92;;;-1.65;77.00
63447;BME280;49577;49.872;6.190;2023-04-06T04:13:11;99641.95;;;-1.61;76.91
63447;BME280;49577;49.872;6.190;2023-04-06T04:15:36;99640.88;;;-1.57;76.98
63447;BME280;49577;49.872;6.190;2023-04-06T04:18:01;99642.87;;;-1.52;76.82
63447;BME280;49577;49.872;6.190;2023-04-06T04:20:27;99649.67;;;-1.49;76.82
63447;BME280;49577;49.872;6.190;2023-04-06T04:22:53;99648.96;;;-1.46;76.77
63447;BME280;49577;49.872;6.190;2023-04-06T04:25:18;99650.63;;;-1.43;76.73
63447;BME280;49577;49.872;6.190;2023-04-06T04:27:44;99650.08;;;-1.40;76.80
63447;BME280;49577;49.872;6.190;2023-04-06T04:30:09;99649.52;;;-1.37;76.88
63447;BME280;49577;49.872;6.190;2023-04-06T04:32:35;99649.30;;;-1.35;76.83
63447;BME280;49577;49.872;6.190;2023-04-06T04:35:01;99651.86;;;-1.33;77.00
63447;BME280;49577;49.872;6.190;2023-04-06T04:37:26;99652.33;;;-1.29;77.04
63447;BME280;49577;49.872;6.190;2023-04-06T04:39:51;99648.16;;;-1.25;77.01
63447;BME280;49577;49.872;6.190;2023-04-06T04:42:17;99647.93;;;-1.22;76.92
63447;BME280;49577;49.872;6.190;2023-04-06T04:44:42;99647.54;;;-1.17;77.20
63447;BME280;49577;49.872;6.190;2023-04-06T04:47:07;99647.98;;;-1.13;77.13
63447;BME280;49577;49.872;6.190;2023-04-06T04:49:33;99640.07;;;-1.11;76.93
63447;BME280;49577;49.872;6.190;2023-04-06T04:51:58;99640.87;;;-1.07;77.00
63447;BME280;49577;49.872;6.190;2023-04-06T04:54:23;99646.46;;;-1.03;76.97
63447;BME280;49577;49.872;6.190;2023-04-06T04:56:49;99640.09;;;-1.01;76.56
63447;BME280;49577;49.872;6.190;2023-04-06T04:59:15;99636.80;;;-0.99;76.72
63447;BME280;49577;49.872;6.190;2023-04-06T05:01:41;99641.92;;;-0.97;76.59
63447;BME280;49577;49.872;6.190;2023-04-06T05:04:06;99646.69;;;-0.95;76.80
63447;BME280;49577;49.872;6.190;2023-04-06T05:06:31;99648.34;;;-0.90;76.67
63447;BME280;49577;49.872;6.190;2023-04-06T05:08:57;99645.21;;;-0.88;76.48
63447;BME280;49577;49.872;6.190;2023-04-06T05:11:22;99644.98;;;-0.85;76.58
63447;BME280;49577;49.872;6.190;2023-04-06T05:13:47;99645.80;;;-0.83;76.39
63447;BME280;49577;49.872;6.190;2023-04-06T05:16:13;99639.94;;;-0.80;76.43
63447;BME280;49577;49.872;6.190;2023-04-06T05:18:38;99646.22;;;-0.76;76.23
63447;BME280;49577;49.872;6.190;2023-04-06T05:21:03;99644.99;;;-0.74;75.97
63447;BME280;49577;49.872;6.190;2023-04-06T05:23:29;99648.70;;;-0.70;76.24
63447;BME280;49577;49.872;6.190;2023-04-06T05:25:54;99650.48;;;-0.63;76.13
63447;BME280;49577;49.872;6.190;2023-04-06T05:28:20;99651.05;;;-0.57;76.11
63447;BME280;49577;49.872;6.190;2023-04-06T05:30:45;99648.40;;;-0.53;75.87
63447;BME280;49577;49.872;6.190;2023-04-06T05:33:13;99647.64;;;-0.48;75.85
63447;BME280;49577;49.872;6.190;2023-04-06T05:35:39;99645.10;;;-0.41;75.94
63447;BME280;49577;49.872;6.190;2023-04-06T05:38:07;99646.46;;;-0.30;75.87
63447;BME280;49577;49.872;6.190;2023-04-06T05:40:33;99647.00;;;-0.22;75.42
63447;BME280;49577;49.872;6.190;2023-04-06T05:42:58;99647.23;;;-0.16;75.28
63447;BME280;49577;49.872;6.190;2023-04-06T05:45:23;99649.38;;;-0.11;74.99
63447;BME280;49577;49.872;6.190;2023-04-06T05:47:49;99651.48;;;-0.04;75.02
63447;BME280;49577;49.872;6.190;2023-04-06T05:50:15;99655.50;;;0.01;74.72
63447;BME280;49577;49.872;6.190;2023-04-06T05:52:40;99654.19;;;0.07;74.45
63447;BME280;49577;49.872;6.190;2023-04-06T05:55:08;99660.58;;;0.14;74.46
63447;BME280;49577;49.872;6.190;2023-04-06T05:57:34;99660.44;;;0.21;74.17
63447;BME280;49577;49.872;6.190;2023-04-06T06:00:00;99661.29;;;0.31;73.97
63447;BME280;49577;49.872;6.190;2023-04-06T06:02:25;99655.23;;;0.40;73.83
63447;BME280;49577;49.872;6.190;2023-04-06T06:04:51;99656.75;;;0.50;73.79
63447;BME280;49577;49.872;6.190;2023-04-06T06:07:16;99656.86;;;0.62;73.64
63447;BME280;49577;49.872;6.190;2023-04-06T06:09:42;99659.38;;;0.72;73.50
63447;BME280;49577;49.872;6.190;2023-04-06T06:12:07;99657.04;;;0.85;73.19
63447;BME280;49577;49.872;6.190;2023-04-06T06:14:32;99660.55;;;0.96;72.89
63447;BME280;49577;49.872;6.190;2023-04-06T06:16:58;99658.93;;;1.07;72.69
63447;BME280;49577;49.872;6.190;2023-04-06T06:19:23;99660.70;;;1.20;72.62
63447;BME280;49577;49.872;6.190;2023-04-06T06:21:48;99658.35;;;1.39;72.47
63447;BME280;49577;49.872;6.190;2023-04-06T06:24:14;99657.40;;;1.63;71.78
63447;BME280;49577;49.872;6.190;2023-04-06T06:26:39;99656.77;;;1.94;71.54
63447;BME280;49577;49.872;6.190;2023-04-06T06:29:06;99657.95;;;2.33;70.95
63447;BME280;49577;49.872;6.190;2023-04-06T06:31:31;99662.95;;;2.75;70.10
63447;BME280;49577;49.872;6.190;2023-04-06T06:33:57;99665.70;;;3.35;69.08
63447;BME280;49577;49.872;6.190;2023-04-06T06:36:22;99660.98;;;4.03;67.90
63447;BME280;49577;49.872;6.190;2023-04-06T06:38:47;99658.88;;;4.76;66.07
63447;BME280;49577;49.872;6.190;2023-04-06T06:41:13;99653.85;;;5.12;64.71
63447;BME280;49577;49.872;6.190;2023-04-06T06:43:38;99650.88;;;5.21;63.86
63447;BME280;49577;49.872;6.190;2023-04-06T06:46:04;99654.04;;;5.28;63.46
63447;BME280;49577;49.872;6.190;2023-04-06T06:48:29;99651.19;;;5.35;62.69
63447;BME280;49577;49.872;6.190;2023-04-06T06:50:55;99647.70;;;5.31;62.30
63447;BME280;49577;49.872;6.190;2023-04-06T06:53:21;99648.85;;;5.24;62.24
63447;BME280;49577;49.872;6.190;2023-04-06T06:55:46;99646.14;;;5.22;62.19
63447;BME280;49577;49.872;6.190;2023-04-06T06:58:14;99646.49;;;5.18;61.73
63447;BME280;49577;49.872;6.190;2023-04-06T07:00:39;99644.90;;;5.01;61.43
63447;BME280;49577;49.872;6.190;2023-04-06T07:03:04;99647.10;;;4.94;61.65
63447;BME280;49577;49.872;6.190;2023-04-06T07:05:30;99650.30;;;4.78;61.62
63447;BME280;49577;49.872;6.190;2023-04-06T07:07:55;99648.23;;;4.59;61.67
63447;BME280;49577;49.872;6.190;2023-04-06T07:10:21;99644.53;;;4.43;61.99
63447;BME280;49577;49.872;6.190;2023-04-06T07:12:47;99645.80;;;4.37;62.26
63447;BME280;49577;49.872;6.190;2023-04-06T07:15:12;99644.41;;;4.46;62.34
63447;BME280;49577;49.872;6.190;2023-04-06T07:17:37;99645.05;;;4.70;62.24
63447;BME280;49577;49.872;6.190;2023-04-06T07:20:03;99648.09;;;4.95;61.71
63447;BME280;49577;49.872;6.190;2023-04-06T07:22:29;99644.95;;;5.26;61.30
63447;BME280;49577;49.872;6.190;2023-04-06T07:24:54;99639.39;;;5.52;60.56
63447;BME280;49577;49.872;6.190;2023-04-06T07:27:19;99639.20;;;5.61;59.86
63447;BME280;49577;49.872;6.190;2023-04-06T07:29:45;99636.35;;;5.54;59.93
63447;BME280;49577;49.872;6.190;2023-04-06T07:32:10;99638.24;;;5.42;60.02
63447;BME280;49577;49.872;6.190;2023-04-06T07:34:35;99637.34;;;5.39;60.00
63447;BME280;49577;49.872;6.190;2023-04-06T07:37:01;99636.89;;;5.54;59.88
63447;BME280;49577;49.872;6.190;2023-04-06T07:39:26;99642.63;;;5.98;59.35
63447;BME280;49577;49.872;6.190;2023-04-06T07:41:52;99638.42;;;6.43;58.77
63447;BME280;49577;49.872;6.190;2023-04-06T07:44:17;99638.98;;;6.80;57.72
63447;BME280;49577;49.872;6.190;2023-04-06T07:46:43;99636.98;;;7.15;56.76
63447;BME280;49577;49.872;6.190;2023-04-06T07:49:08;99640.30;;;7.36;56.02
63447;BME280;49577;49.872;6.190;2023-04-06T07:51:37;99631.19;;;7.76;55.62
63447;BME280;49577;49.872;6.190;2023-04-06T07:54:03;99632.36;;;8.50;54.90
63447;BME280;49577;49.872;6.190;2023-04-06T07:56:28;99624.77;;;9.39;53.89
63447;BME280;49577;49.872;6.190;2023-04-06T07:58:53;99621.95;;;10.48;51.98
63447;BME280;49577;49.872;6.190;2023-04-06T08:01:21;99622.80;;;11.39;50.12
63447;BME280;49577;49.872;6.190;2023-04-06T08:03:47;99618.15;;;11.80;48.81
63447;BME280;49577;49.872;6.190;2023-04-06T08:06:12;99616.73;;;12.22;48.03
63447;BME280;49577;49.872;6.190;2023-04-06T08:08:37;99614.84;;;12.71;46.78
63447;BME280;49577;49.872;6.190;2023-04-06T08:11:03;99610.04;;;12.94;45.10
63447;BME280;49577;49.872;6.190;2023-04-06T08:13:28;99609.07;;;12.85;44.22
63447;BME280;49577;49.872;6.190;2023-04-06T08:15:53;99607.33;;;12.90;44.12
63447;BME280;49577;49.872;6.190;2023-04-06T08:18:19;99608.38;;;13.02;44.21
63447;BME280;49577;49.872;6.190;2023-04-06T08:20:44;99608.33;;;12.99;43.94
63447;BME280;49577;49.872;6.190;2023-04-06T08:23:10;99604.34;;;13.05;44.08
63447;BME280;49577;49.872;6.190;2023-04-06T08:25:36;99604.05;;;12.82;43.87
63447;BME280;49577;49.872;6.190;2023-04-06T08:28:02;99602.59;;;12.41;44.17
63447;BME280;49577;49.872;6.190;2023-04-06T08:30:28;99605.86;;;12.07;44.76
63447;BME280;49577;49.872;6.190;2023-04-06T08:32:54;99606.65;;;11.80;45.21
63447;BME280;49577;49.872;6.190;2023-04-06T08:35:19;99604.58;;;11.61;45.27
63447;BME280;49577;49.872;6.190;2023-04-06T08:37:45;99603.25;;;11.49;45.22
63447;BME280;49577;49.872;6.190;2023-04-06T08:40:11;99601.95;;;11.24;45.55
63447;BME280;49577;49.872;6.190;2023-04-06T08:42:40;99601.23;;;10.97;45.42
63447;BME280;49577;49.872;6.190;2023-04-06T08:45:09;99599.14;;;10.75;45.28
63447;BME280;49577;49.872;6.190;2023-04-06T08:47:36;99600.36;;;10.62;46.40
63447;BME280;49577;49.872;6.190;2023-04-06T08:50:03;99599.00;;;10.53;47.22
63447;BME280;49577;49.872;6.190;2023-04-06T08:52:31;99596.50;;;10.51;47.52
63447;BME280;49577;49.872;6.190;2023-04-06T08:54:56;99597.63;;;10.50;47.58
63447;BME280;49577;49.872;6.190;2023-04-06T08:57:22;99594.04;;;10.54;46.76
63447;BME280;49577;49.872;6.190;2023-04-06T08:59:49;99593.08;;;10.72;47.14
63447;BME280;49577;49.872;6.190;2023-04-06T09:02:18;99592.67;;;10.81;46.99
63447;BME280;49577;49.872;6.190;2023-04-06T09:04:45;99595.09;;;10.81;46.91
63447;BME280;49577;49.872;6.190;2023-04-06T09:07:11;99592.63;;;10.87;47.12
63447;BME280;49577;49.872;6.190;2023-04-06T09:09:36;99591.77;;;10.95;46.71
63447;BME280;49577;49.872;6.190;2023-04-06T09:12:02;99592.26;;;11.07;47.28
63447;BME280;49577;49.872;6.190;2023-04-06T09:14:37;99592.11;;;11.22;47.25
63447;BME280;49577;49.872;6.190;2023-04-06T09:17:04;99585.48;;;11.38;47.22
63447;BME280;49577;49.872;6.190;2023-04-06T09:19:30;99580.21;;;11.35;47.07
63447;BME280;49577;49.872;6.190;2023-04-06T09:22:05;99581.19;;;11.36;47.20
63447;BME280;49577;49.872;6.190;2023-04-06T09:24:43;99585.91;;;11.47;47.53
63447;BME280;49577;49.872;6.190;2023-04-06T09:27:09;99586.45;;;11.47;47.61
63447;BME280;49577;49.872;6.190;2023-04-06T09:29:35;99583.09;;;11.36;47.70
63447;BME280;49577;49.872;6.190;2023-04-06T09:32:05;99584.89;;;11.31;48.09
63447;BME280;49577;49.872;6.190;2023-04-06T09:34:32;99582.35;;;11.27;48.17
63447;BME280;49577;49.872;6.190;2023-04-06T09:36:58;99583.39;;;11.27;48.46
63447;BME280;49577;49.872;6.190;2023-04-06T09:39:24;99582.83;;;11.22;48.69
63447;BME280;49577;49.872;6.190;2023-04-06T09:41:53;99581.35;;;11.21;48.93
63447;BME280;49577;49.872;6.190;2023-04-06T09:44:19;99578.90;;;11.21;48.84
63447;BME280;49577;49.872;6.190;2023-04-06T09:46:46;99577.17;;;11.31;49.00
63447;BME280;49577;49.872;6.190;2023-04-06T09:49:12;99578.28;;;11.35;49.21
63447;BME280;49577;49.872;6.190;2023-04-06T09:51:54;99577.25;;;11.41;49.06
63447;BME280;49577;49.872;6.190;2023-04-06T09:54:21;99576.05;;;11.53;48.92
63447;BME280;49577;49.872;6.190;2023-04-06T09:56:51;99577.01;;;11.68;48.79
63447;BME280;49577;49.872;6.190;2023-04-06T10:02:16;99577.09;;;11.93;47.94
63447;BME280;49577;49.872;6.190;2023-04-06T10:05:09;99575.73;;;12.09;47.86
63447;BME280;49577;49.872;6.190;2023-04-06T10:07:39;99577.25;;;12.48;47.33
63447;BME280;49577;49.872;6.190;2023-04-06T10:10:05;99575.48;;;12.70;46.55
63447;BME280;49577;49.872;6.190;2023-04-06T10:12:31;99569.35;;;12.82;46.12
63447;BME280;49577;49.872;6.190;2023-04-06T10:14:57;99565.00;;;12.99;45.90
63447;BME280;49577;49.872;6.190;2023-04-06T10:17:22;99558.50;;;13.27;44.89
63447;BME280;49577;49.872;6.190;2023-04-06T10:19:56;99558.41;;;13.61;43.94
63447;BME280;49577;49.872;6.190;2023-04-06T10:22:31;99557.77;;;13.97;43.07
63447;BME280;49577;49.872;6.190;2023-04-06T10:24:59;99556.10;;;14.21;42.04
63447;BME280;49577;49.872;6.190;2023-04-06T10:27:28;99556.86;;;14.35;41.30
63447;BME280;49577;49.872;6.190;2023-04-06T10:30:01;99558.91;;;14.46;41.22
63447;BME280;49577;49.872;6.190;2023-04-06T10:35:08;99552.48;;;14.78;39.51
63447;BME280;49577;49.872;6.190;2023-04-06T10:37:50;99555.66;;;14.99;39.96
63447;BME280;49577;49.872;6.190;2023-04-06T10:40:24;99558.73;;;15.17;38.86
63447;BME280;49577;49.872;6.190;2023-04-06T10:42:51;99553.73;;;15.27;38.24
63447;BME280;49577;49.872;6.190;2023-04-06T10:45:26;99552.06;;;15.27;37.78
63447;BME280;49577;49.872;6.190;2023-04-06T10:47:55;99553.81;;;15.06;38.02
63447;BME280;49577;49.872;6.190;2023-04-06T10:50:21;99559.38;;;14.86;37.93
63447;BME280;49577;49.872;6.190;2023-04-06T10:52:47;99556.02;;;14.64;37.47
63447;BME280;49577;49.872;6.190;2023-04-06T10:55:23;99559.46;;;14.31;38.02
63447;BME280;49577;49.872;6.190;2023-04-06T10:57:49;99557.35;;;14.14;38.71
63447;BME280;49577;49.872;6.190;2023-04-06T11:00:15;99562.80;;;13.98;38.56
63447;BME280;49577;49.872;6.190;2023-04-06T11:02:40;99553.90;;;13.93;38.76
63447;BME280;49577;49.872;6.190;2023-04-06T11:05:07;99555.27;;;13.90;39.33
63447;BME280;49577;49.872;6.190;2023-04-06T11:07:32;99556.23;;;13.87;39.13
63447;BME280;49577;49.872;6.190;2023-04-06T11:09:58;99554.27;;;13.72;38.84
63447;BME280;49577;49.872;6.190;2023-04-06T11:12:27;99554.44;;;13.49;38.89
63447;BME280;49577;49.872;6.190;2023-04-06T11:14:57;99557.67;;;13.29;39.46
63447;BME280;49577;49.872;6.190;2023-04-06T11:17:34;99559.70;;;13.16;40.05
63447;BME280;49577;49.872;6.190;2023-04-06T11:20:01;99557.19;;;13.05;40.74
63447;BME280;49577;49.872;6.190;2023-04-06T11:22:27;99557.98;;;13.01;41.39
63447;BME280;49577;49.872;6.190;2023-04-06T11:24:53;99556.44;;;13.03;41.56
63447;BME280;49577;49.872;6.190;2023-04-06T11:27:19;99558.10;;;12.99;41.35
63447;BME280;49577;49.872;6.190;2023-04-06T11:29:45;99562.28;;;12.80;41.10
63447;BME280;49577;49.872;6.190;2023-04-06T11:32:11;99559.56;;;12.62;41.33
63447;BME280;49577;49.872;6.190;2023-04-06T11:34:46;99556.83;;;12.54;41.61
63447;BME280;49577;49.872;6.190;2023-04-06T11:37:12;99560.89;;;12.51;42.03
63447;BME280;49577;49.872;6.190;2023-04-06T11:39:46;99552.45;;;12.47;42.54
63447;BME280;49577;49.872;6.190;2023-04-06T11:42:12;99552.84;;;12.42;42.83
63447;BME280;49577;49.872;6.190;2023-04-06T11:44:39;99550.98;;;12.37;43.19
63447;BME280;49577;49.872;6.190;2023-04-06T11:47:09;99551.14;;;12.23;43.99
63447;BME280;49577;49.872;6.190;2023-04-06T11:49:40;99553.02;;;12.07;45.24
63447;BME280;49577;49.872;6.190;2023-04-06T11:52:26;99549.58;;;11.93;45.51
63447;BME280;49577;49.872;6.190;2023-04-06T11:54:53;99552.60;;;11.77;45.87
63447;BME280;49577;49.872;6.190;2023-04-06T11:57:21;99548.25;;;11.71;46.17
63447;BME280;49577;49.872;6.190;2023-04-06T11:59:48;99552.67;;;11.65;46.49
63447;BME280;49577;49.872;6.190;2023-04-06T12:02:13;99553.03;;;11.60;46.77
63447;BME280;49577;49.872;6.190;2023-04-06T12:04:38;99552.26;;;11.56;47.24
63447;BME280;49577;49.872;6.190;2023-04-06T12:07:04;99553.70;;;11.50;47.38
63447;BME280;49577;49.872;6.190;2023-04-06T12:09:29;99552.63;;;11.48;48.13
63447;BME280;49577;49.872;6.190;2023-04-06T12:11:55;99554.98;;;11.47;48.20
63447;BME280;49577;49.872;6.190;2023-04-06T12:14:21;99554.42;;;11.47;49.30
63447;BME280;49577;49.872;6.190;2023-04-06T12:16:47;99552.27;;;11.43;49.95
63447;BME280;49577;49.872;6.190;2023-04-06T12:19:12;99553.42;;;11.41;50.80
63447;BME280;49577;49.872;6.190;2023-04-06T12:21:38;99552.97;;;11.43;50.56
63447;BME280;49577;49.872;6.190;2023-04-06T12:24:04;99557.77;;;11.47;50.76
63447;BME280;49577;49.872;6.190;2023-04-06T12:26:30;99555.14;;;11.52;51.38
63447;BME280;49577;49.872;6.190;2023-04-06T12:28:55;99555.89;;;11.62;51.95
63447;BME280;49577;49.872;6.190;2023-04-06T12:31:21;99552.06;;;11.66;51.83
63447;BME280;49577;49.872;6.190;2023-04-06T12:33:51;99553.01;;;11.58;52.16
63447;BME280;49577;49.872;6.190;2023-04-06T12:36:19;99552.50;;;11.42;51.66
63447;BME280;49577;49.872;6.190;2023-04-06T12:38:48;99547.81;;;11.21;52.54
63447;BME280;49577;49.872;6.190;2023-04-06T12:41:14;99551.89;;;11.11;53.27
63447;BME280;49577;49.872;6.190;2023-04-06T12:43:40;99553.79;;;11.07;53.76
63447;BME280;49577;49.872;6.190;2023-04-06T12:46:06;99551.60;;;11.03;54.17
63447;BME280;49577;49.872;6.190;2023-04-06T12:48:31;99552.27;;;10.93;54.10
63447;BME280;49577;49.872;6.190;2023-04-06T12:50:58;99549.39;;;10.86;54.69
63447;BME280;49577;49.872;6.190;2023-04-06T12:53:24;99547.34;;;10.79;55.20
63447;BME280;49577;49.872;6.190;2023-04-06T12:55:50;99546.74;;;10.72;56.13
63447;BME280;49577;49.872;6.190;2023-04-06T12:58:15;99545.63;;;10.71;56.33
63447;BME280;49577;49.872;6.190;2023-04-06T13:00:42;99544.06;;;10.76;56.58
63447;BME280;49577;49.872;6.190;2023-04-06T13:03:07;99543.30;;;10.77;56.88